Terminal Aerodrome Forecast
Issued by NWS

Home | Current Version | Previous Version | Text Only | Print | Product List | Glossary On
Versions: 1 2 3 4 5 6 7 8 9 10 11 12 13 14 15 16 17 18 19 20 21 22 23 24 25 26 27 28 29
000
FTUS45 KGGW 211700
TAFOLF
TAF
KOLF 211730Z 2118/2218 08008KT P6SM SCT080 BKN140
     FM212300 03012KT P6SM BKN080
      TEMPO 2200/2204 4SM -TSRA BKN040CB
     FM220600 VRB06KT P6SM FEW150=

USA.gov is the U.S. government's official web portal to all federal, state and local government web resources and services.